Anderson, SC

2:23 PM EDT on September 04, 2015 (GMT -0400)
Southwood Area | | Change Station
CLOSE
Current Station
Personal Weather Station
Location: Anderson, SC
Elevation: 722 ft
Nearby Weather Stations

Elev 722 ft 34.49 °N, 82.66 °W | Updated 21 seconds ago

Clear
Clear
93.2 °F
Feels Like 101 °F
N
0.0
Wind Variable Wind from NNE
Gusts 1.0 mph

Today
High -- | Low -- °F
--% Chance of Precip.
Yesterday
High -- | Low -- °F
Precip. -- in
7:05 AM 7:53 PM
Waning Gibbous, 57% visible
Pressure 29.98 in
Visibility 10.0 miles
Clouds Few 5500 ft
Heat Index 101 °F
Dew Point 72 °F
Humidity 50%
Rainfall 0.00 in
Snow Depth Not available.
UV 9 out of 12
Pollen 9.20 out of 12
Air Quality Not available.
Flu Activity Not available.
METAR KAND 041756Z AUTO 00000KT 10SM FEW055 33/20 A3001 RMK AO2 SLP150 T03330200 10339 20217 58008
Pressure 29.98 in
Visibility 10.0 miles
Clouds Few 5500 ft
Heat Index 101 °F
Dew Point 72 °F
Humidity 50%
Rainfall 0.00 in
Snow Depth Not available.
UV 9 out of 12
Pollen 9.20 out of 12
Air Quality Not available.
Flu Activity Not available.
METAR KAND 041756Z AUTO 00000KT 10SM FEW055 33/20 A3001 RMK AO2 SLP150 T03330200 10339 20217 58008

10-Day Weather Forecast

×

Almanac

Astronomy

Sep. 04, 2015 Rise Set
Actual Time
Civil Twilight
Nautical Twilight
Astronomical Twilight
Moon
Length of Visible Light
Length of Day
Tomorrow will be .
, % of the Moon is Illuminated

Today's Extremes

State Highs State Lows

Community

WunderPhotos

Upload Photos

1,852,251 photos uploaded!

WunderBlogs® & News

Nearby

Air Quality

  Air Quality AQ Index Pollutant
Not available.

Snow Depth

Station Depth Elevation

Earthquake Activity

City Distance Mag. Time & Date
Minimum magnitude displayed is 2.5.

Coastal Water Temperatures

Place Temperature

Stations

Nearby Weather Stations

Station Location Temp. Windchill Dew Point Humidity Wind Precip. Elev Updated Type